sensor_id;sensor_type;location;lat;lon;timestamp;pressure;altitude;pressure_sealevel;temperature;humidity
14689;BME280;7432;48.728;9.154;2022-11-20T00:01:23;96056.38;;;5.32;100.00
14689;BME280;7432;48.728;9.154;2022-11-20T00:03:51;96061.09;;;5.27;100.00
14689;BME280;7432;48.728;9.154;2022-11-20T00:06:19;96062.03;;;5.26;100.00
14689;BME280;7432;48.728;9.154;2022-11-20T00:08:46;96064.59;;;5.26;100.00
14689;BME280;7432;48.728;9.154;2022-11-20T00:11:16;96047.41;;;5.18;100.00
14689;BME280;7432;48.728;9.154;2022-11-20T00:13:43;96057.59;;;5.28;100.00
14689;BME280;7432;48.728;9.154;2022-11-20T00:16:11;96040.47;;;5.11;100.00
14689;BME280;7432;48.728;9.154;2022-11-20T00:18:37;96065.66;;;5.23;100.00
14689;BME280;7432;48.728;9.154;2022-11-20T00:21:05;96050.91;;;5.17;100.00
14689;BME280;7432;48.728;9.154;2022-11-20T00:23:33;96066.06;;;5.28;100.00
14689;BME280;7432;48.728;9.154;2022-11-20T00:26:02;96067.41;;;5.32;99.93
14689;BME280;7432;48.728;9.154;2022-11-20T00:28:30;96063.06;;;5.33;99.24
14689;BME280;7432;48.728;9.154;2022-11-20T00:31:01;96063.88;;;5.33;99.76
14689;BME280;7432;48.728;9.154;2022-11-20T00:33:28;96065.13;;;5.29;99.56
14689;BME280;7432;48.728;9.154;2022-11-20T00:35:59;96063.38;;;5.30;99.75
14689;BME280;7432;48.728;9.154;2022-11-20T00:38:25;96067.41;;;5.23;100.00
14689;BME280;7432;48.728;9.154;2022-11-20T00:40:55;96062.84;;;5.26;99.52
14689;BME280;7432;48.728;9.154;2022-11-20T00:43:21;96066.88;;;5.19;100.00
14689;BME280;7432;48.728;9.154;2022-11-20T00:45:49;96066.72;;;5.30;99.75
14689;BME280;7432;48.728;9.154;2022-11-20T00:48:15;96066.47;;;5.24;99.43
14689;BME280;7432;48.728;9.154;2022-11-20T00:50:42;96066.44;;;5.33;99.31
14689;BME280;7432;48.728;9.154;2022-11-20T00:53:08;96071.16;;;5.38;98.86
14689;BME280;7432;48.728;9.154;2022-11-20T00:55:35;96063.06;;;5.43;98.57
14689;BME280;7432;48.728;9.154;2022-11-20T00:58:01;96075.66;;;5.54;97.73
14689;BME280;7432;48.728;9.154;2022-11-20T01:00:27;96074.19;;;5.51;97.33
14689;BME280;7432;48.728;9.154;2022-11-20T01:02:56;96081.97;;;5.50;97.13
14689;BME280;7432;48.728;9.154;2022-11-20T01:05:23;96072.72;;;5.49;98.20
14689;BME280;7432;48.728;9.154;2022-11-20T01:07:49;96076.59;;;5.53;97.77
14689;BME280;7432;48.728;9.154;2022-11-20T01:10:16;96072.03;;;5.47;97.36
14689;BME280;7432;48.728;9.154;2022-11-20T01:12:42;96074.09;;;5.43;97.43
14689;BME280;7432;48.728;9.154;2022-11-20T01:15:28;96070.06;;;5.41;97.15
14689;BME280;7432;48.728;9.154;2022-11-20T01:17:56;96069.25;;;5.40;96.57
14689;BME280;7432;48.728;9.154;2022-11-20T01:20:23;96073.56;;;5.39;97.40
14689;BME280;7432;48.728;9.154;2022-11-20T01:22:49;96082.94;;;5.39;96.82
14689;BME280;7432;48.728;9.154;2022-11-20T01:25:15;96088.59;;;5.33;97.15
14689;BME280;7432;48.728;9.154;2022-11-20T01:27:42;96088.38;;;5.26;96.98
14689;BME280;7432;48.728;9.154;2022-11-20T01:30:09;96088.75;;;5.22;97.66
14689;BME280;7432;48.728;9.154;2022-11-20T01:32:35;96095.22;;;5.26;97.52
14689;BME280;7432;48.728;9.154;2022-11-20T01:35:04;96095.22;;;5.26;97.08
14689;BME280;7432;48.728;9.154;2022-11-20T01:37:30;96094.81;;;5.21;97.61
14689;BME280;7432;48.728;9.154;2022-11-20T01:39:57;96090.41;;;5.13;97.43
14689;BME280;7432;48.728;9.154;2022-11-20T01:42:23;96085.84;;;5.07;97.64
14689;BME280;7432;48.728;9.154;2022-11-20T01:48:07;96085.59;;;4.82;98.60
14689;BME280;7432;48.728;9.154;2022-11-20T01:50:35;96073.38;;;4.75;97.89
14689;BME280;7432;48.728;9.154;2022-11-20T01:53:04;96069.59;;;4.70;99.05
14689;BME280;7432;48.728;9.154;2022-11-20T01:55:34;96069.09;;;4.66;98.31
14689;BME280;7432;48.728;9.154;2022-11-20T01:58:04;96077.94;;;4.53;99.04
14689;BME280;7432;48.728;9.154;2022-11-20T02:00:31;96074.28;;;4.46;99.58
14689;BME280;7432;48.728;9.154;2022-11-20T02:02:59;96081.28;;;4.44;99.12
14689;BME280;7432;48.728;9.154;2022-11-20T02:05:30;96083.69;;;4.36;99.18
14689;BME280;7432;48.728;9.154;2022-11-20T02:08:00;96081.81;;;4.38;99.76
14689;BME280;7432;48.728;9.154;2022-11-20T02:10:29;96087.03;;;4.46;98.97
14689;BME280;7432;48.728;9.154;2022-11-20T02:12:56;96081.94;;;4.36;99.51
14689;BME280;7432;48.728;9.154;2022-11-20T02:15:40;96082.75;;;4.37;98.75
14689;BME280;7432;48.728;9.154;2022-11-20T02:18:07;96088.25;;;4.42;99.43
14689;BME280;7432;48.728;9.154;2022-11-20T02:20:35;96086.53;;;4.52;99.07
14689;BME280;7432;48.728;9.154;2022-11-20T02:23:08;96088.81;;;4.55;98.86
14689;BME280;7432;48.728;9.154;2022-11-20T02:25:41;96093.63;;;4.58;99.04
14689;BME280;7432;48.728;9.154;2022-11-20T02:28:09;96089.09;;;4.61;98.87
14689;BME280;7432;48.728;9.154;2022-11-20T02:30:36;96086.28;;;4.64;98.88
14689;BME280;7432;48.728;9.154;2022-11-20T02:33:02;96088.81;;;4.64;99.12
14689;BME280;7432;48.728;9.154;2022-11-20T02:35:42;96084.50;;;4.65;99.09
14689;BME280;7432;48.728;9.154;2022-11-20T02:38:09;96082.50;;;4.68;98.40
14689;BME280;7432;48.728;9.154;2022-11-20T02:40:36;96075.28;;;4.64;98.87
14689;BME280;7432;48.728;9.154;2022-11-20T02:43:03;96082.53;;;4.59;98.67
14689;BME280;7432;48.728;9.154;2022-11-20T02:45:30;96084.91;;;4.60;98.94
14689;BME280;7432;48.728;9.154;2022-11-20T02:47:56;96066.00;;;4.44;99.13
14689;BME280;7432;48.728;9.154;2022-11-20T02:50:23;96081.72;;;4.58;98.54
14689;BME280;7432;48.728;9.154;2022-11-20T02:52:49;96079.41;;;4.55;98.86
14689;BME280;7432;48.728;9.154;2022-11-20T02:55:16;96085.19;;;4.57;98.70
14689;BME280;7432;48.728;9.154;2022-11-20T02:57:42;96081.28;;;4.63;98.56
14689;BME280;7432;48.728;9.154;2022-11-20T03:00:11;96082.25;;;4.71;98.69
14689;BME280;7432;48.728;9.154;2022-11-20T03:02:38;96085.34;;;4.75;98.86
14689;BME280;7432;48.728;9.154;2022-11-20T03:05:04;96086.69;;;4.89;97.61
14689;BME280;7432;48.728;9.154;2022-11-20T03:07:31;96080.22;;;4.85;97.85
14689;BME280;7432;48.728;9.154;2022-11-20T03:09:57;96082.22;;;4.81;98.72
14689;BME280;7432;48.728;9.154;2022-11-20T03:12:23;96087.06;;;4.94;98.33
14689;BME280;7432;48.728;9.154;2022-11-20T03:14:50;96092.56;;;4.99;98.08
14689;BME280;7432;48.728;9.154;2022-11-20T03:17:17;96087.44;;;5.08;97.55
14689;BME280;7432;48.728;9.154;2022-11-20T03:19:44;96088.38;;;5.17;97.24
14689;BME280;7432;48.728;9.154;2022-11-20T03:22:10;96083.81;;;5.20;96.71
14689;BME280;7432;48.728;9.154;2022-11-20T03:24:37;96083.66;;;5.22;97.13
14689;BME280;7432;48.728;9.154;2022-11-20T03:27:03;96076.56;;;5.16;96.96
14689;BME280;7432;48.728;9.154;2022-11-20T03:29:29;96084.63;;;5.11;97.34
14689;BME280;7432;48.728;9.154;2022-11-20T03:31:56;96076.31;;;5.09;96.88
14689;BME280;7432;48.728;9.154;2022-11-20T03:34:23;96072.94;;;5.09;97.25
14689;BME280;7432;48.728;9.154;2022-11-20T03:36:50;96073.34;;;4.95;97.25
14689;BME280;7432;48.728;9.154;2022-11-20T03:39:16;96072.69;;;4.93;98.07
14689;BME280;7432;48.728;9.154;2022-11-20T03:41:42;96044.00;;;4.71;97.56
14689;BME280;7432;48.728;9.154;2022-11-20T03:44:11;96071.88;;;4.73;97.64
14689;BME280;7432;48.728;9.154;2022-11-20T03:46:38;96072.56;;;4.65;97.82
14689;BME280;7432;48.728;9.154;2022-11-20T03:49:04;96062.50;;;4.54;98.33
14689;BME280;7432;48.728;9.154;2022-11-20T03:51:34;96074.72;;;4.41;98.33
14689;BME280;7432;48.728;9.154;2022-11-20T03:54:02;96068.91;;;4.30;99.10
14689;BME280;7432;48.728;9.154;2022-11-20T03:56:31;96077.63;;;4.27;99.27
14689;BME280;7432;48.728;9.154;2022-11-20T03:58:58;96070.78;;;4.18;99.27
14689;BME280;7432;48.728;9.154;2022-11-20T04:01:26;96067.03;;;4.22;99.18
14689;BME280;7432;48.728;9.154;2022-11-20T04:03:53;96063.38;;;4.05;99.20
14689;BME280;7432;48.728;9.154;2022-11-20T04:06:23;96062.16;;;4.00;99.46
14689;BME280;7432;48.728;9.154;2022-11-20T04:08:53;96076.31;;;4.23;99.62
14689;BME280;7432;48.728;9.154;2022-11-20T04:11:21;96072.28;;;4.30;99.56
14689;BME280;7432;48.728;9.154;2022-11-20T04:13:49;96073.91;;;4.31;99.43
14689;BME280;7432;48.728;9.154;2022-11-20T04:16:16;96066.63;;;4.27;99.46
14689;BME280;7432;48.728;9.154;2022-11-20T04:18:43;96070.81;;;4.28;99.37
14689;BME280;7432;48.728;9.154;2022-11-20T04:21:10;96041.94;;;4.08;99.08
14689;BME280;7432;48.728;9.154;2022-11-20T04:23:37;96073.59;;;4.25;99.43
14689;BME280;7432;48.728;9.154;2022-11-20T04:26:06;96061.00;;;4.23;99.02
14689;BME280;7432;48.728;9.154;2022-11-20T04:28:33;96061.13;;;4.22;99.13
14689;BME280;7432;48.728;9.154;2022-11-20T04:31:04;96054.28;;;4.22;99.20
14689;BME280;7432;48.728;9.154;2022-11-20T04:33:30;96055.22;;;4.21;98.85
14689;BME280;7432;48.728;9.154;2022-11-20T04:36:00;96054.44;;;4.30;98.71
14689;BME280;7432;48.728;9.154;2022-11-20T04:38:27;96054.56;;;4.38;98.23
14689;BME280;7432;48.728;9.154;2022-11-20T04:40:56;96050.84;;;4.42;98.92
14689;BME280;7432;48.728;9.154;2022-11-20T04:43:24;96053.25;;;4.44;99.07
14689;BME280;7432;48.728;9.154;2022-11-20T04:45:50;96051.22;;;4.38;98.28
14689;BME280;7432;48.728;9.154;2022-11-20T04:48:17;96052.84;;;4.48;98.35
14689;BME280;7432;48.728;9.154;2022-11-20T04:50:44;96053.53;;;4.50;98.50
14689;BME280;7432;48.728;9.154;2022-11-20T04:53:10;96051.63;;;4.52;98.69
14689;BME280;7432;48.728;9.154;2022-11-20T04:55:37;96056.47;;;4.55;98.16
14689;BME280;7432;48.728;9.154;2022-11-20T04:58:03;96053.50;;;4.60;97.72
14689;BME280;7432;48.728;9.154;2022-11-20T05:00:31;96050.16;;;4.59;97.92
14689;BME280;7432;48.728;9.154;2022-11-20T05:02:57;96052.84;;;4.58;97.69
14689;BME280;7432;48.728;9.154;2022-11-20T05:05:24;96052.31;;;4.64;97.92
14689;BME280;7432;48.728;9.154;2022-11-20T05:07:50;96049.91;;;4.72;97.85
14689;BME280;7432;48.728;9.154;2022-11-20T05:10:17;96050.69;;;4.82;97.30
14689;BME280;7432;48.728;9.154;2022-11-20T05:12:43;96051.78;;;4.79;97.01
14689;BME280;7432;48.728;9.154;2022-11-20T05:15:09;96048.41;;;4.79;97.55
14689;BME280;7432;48.728;9.154;2022-11-20T05:17:37;96046.78;;;4.88;97.01
14689;BME280;7432;48.728;9.154;2022-11-20T05:20:04;96050.97;;;4.89;97.37
14689;BME280;7432;48.728;9.154;2022-11-20T05:22:31;96047.59;;;4.88;97.42
14689;BME280;7432;48.728;9.154;2022-11-20T05:24:57;96046.66;;;4.79;97.39
14689;BME280;7432;48.728;9.154;2022-11-20T05:27:24;96049.06;;;4.91;97.11
14689;BME280;7432;48.728;9.154;2022-11-20T05:29:50;96042.75;;;4.95;97.08
14689;BME280;7432;48.728;9.154;2022-11-20T05:32:17;96046.09;;;4.95;97.05
14689;BME280;7432;48.728;9.154;2022-11-20T05:34:44;96046.91;;;4.96;96.84
14689;BME280;7432;48.728;9.154;2022-11-20T05:37:11;96044.50;;;4.94;96.83
14689;BME280;7432;48.728;9.154;2022-11-20T05:39:37;96053.75;;;4.95;96.83
14689;BME280;7432;48.728;9.154;2022-11-20T05:42:03;96052.00;;;4.96;96.30
14689;BME280;7432;48.728;9.154;2022-11-20T05:44:47;96051.19;;;4.95;96.83
14689;BME280;7432;48.728;9.154;2022-11-20T05:47:14;96043.81;;;4.92;96.42
14689;BME280;7432;48.728;9.154;2022-11-20T05:49:40;96052.00;;;4.96;96.71
14689;BME280;7432;48.728;9.154;2022-11-20T05:52:08;96040.34;;;4.93;96.58
14689;BME280;7432;48.728;9.154;2022-11-20T05:54:34;96042.50;;;4.88;96.88
14689;BME280;7432;48.728;9.154;2022-11-20T05:57:01;96040.88;;;4.87;96.97
14689;BME280;7432;48.728;9.154;2022-11-20T05:59:27;96043.44;;;4.87;97.14
14689;BME280;7432;48.728;9.154;2022-11-20T06:01:54;96051.34;;;4.94;97.15
14689;BME280;7432;48.728;9.154;2022-11-20T06:04:20;96045.59;;;4.92;96.78
14689;BME280;7432;48.728;9.154;2022-11-20T06:06:47;96056.31;;;4.95;97.44
14689;BME280;7432;48.728;9.154;2022-11-20T06:09:14;96044.38;;;4.96;97.51
14689;BME280;7432;48.728;9.154;2022-11-20T06:11:41;96041.69;;;4.97;97.54
14689;BME280;7432;48.728;9.154;2022-11-20T06:14:07;96050.13;;;4.98;96.92
14689;BME280;7432;48.728;9.154;2022-11-20T06:16:33;96050.28;;;4.96;96.66
14689;BME280;7432;48.728;9.154;2022-11-20T06:19:00;96046.66;;;4.99;97.22
14689;BME280;7432;48.728;9.154;2022-11-20T06:21:27;96055.63;;;5.03;96.68
14689;BME280;7432;48.728;9.154;2022-11-20T06:23:53;96047.69;;;5.06;96.37
14689;BME280;7432;48.728;9.154;2022-11-20T06:26:22;96050.13;;;5.07;96.39
14689;BME280;7432;48.728;9.154;2022-11-20T06:28:50;96046.75;;;5.07;96.64
14689;BME280;7432;48.728;9.154;2022-11-20T06:31:18;96051.59;;;5.10;96.85
14689;BME280;7432;48.728;9.154;2022-11-20T06:33:45;96048.13;;;5.11;96.49
14689;BME280;7432;48.728;9.154;2022-11-20T06:36:12;96047.31;;;5.10;96.63
14689;BME280;7432;48.728;9.154;2022-11-20T06:38:40;96039.66;;;5.10;96.57
14689;BME280;7432;48.728;9.154;2022-11-20T06:41:07;96042.31;;;5.09;96.41
14689;BME280;7432;48.728;9.154;2022-11-20T06:43:37;96046.50;;;5.10;96.70
14689;BME280;7432;48.728;9.154;2022-11-20T06:46:04;96043.94;;;5.10;96.39
14689;BME280;7432;48.728;9.154;2022-11-20T06:48:31;96055.88;;;5.19;95.91
14689;BME280;7432;48.728;9.154;2022-11-20T06:50:59;96053.84;;;5.22;96.01
14689;BME280;7432;48.728;9.154;2022-11-20T06:53:25;96057.34;;;5.21;95.61
14689;BME280;7432;48.728;9.154;2022-11-20T06:55:51;96048.47;;;5.25;95.50
14689;BME280;7432;48.728;9.154;2022-11-20T06:58:18;96057.75;;;5.17;95.38
14689;BME280;7432;48.728;9.154;2022-11-20T07:00:46;96050.13;;;5.07;95.55
14689;BME280;7432;48.728;9.154;2022-11-20T07:03:12;96058.44;;;5.09;96.41
14689;BME280;7432;48.728;9.154;2022-11-20T07:05:39;96052.00;;;5.05;96.46
14689;BME280;7432;48.728;9.154;2022-11-20T07:08:06;96054.16;;;5.10;96.04
14689;BME280;7432;48.728;9.154;2022-11-20T07:10:33;96059.25;;;5.10;96.02
14689;BME280;7432;48.728;9.154;2022-11-20T07:13:00;96063.53;;;5.09;95.94
14689;BME280;7432;48.728;9.154;2022-11-20T07:15:26;96069.72;;;5.16;95.96
14689;BME280;7432;48.728;9.154;2022-11-20T07:17:54;96059.75;;;5.23;96.36
14689;BME280;7432;48.728;9.154;2022-11-20T07:20:20;96067.56;;;5.21;96.11
14689;BME280;7432;48.728;9.154;2022-11-20T07:22:53;96056.22;;;5.33;94.10
14689;BME280;7432;48.728;9.154;2022-11-20T07:25:20;96049.22;;;5.45;94.17
14689;BME280;7432;48.728;9.154;2022-11-20T07:27:46;96060.25;;;5.46;94.75
14689;BME280;7432;48.728;9.154;2022-11-20T07:30:13;96059.97;;;5.49;95.31
14689;BME280;7432;48.728;9.154;2022-11-20T07:32:40;96069.72;;;5.63;94.59
14689;BME280;7432;48.728;9.154;2022-11-20T07:35:08;96067.66;;;5.76;92.96
14689;BME280;7432;48.728;9.154;2022-11-20T07:37:35;96066.53;;;5.88;93.02
14689;BME280;7432;48.728;9.154;2022-11-20T07:40:01;96076.72;;;6.78;90.55
14689;BME280;7432;48.728;9.154;2022-11-20T07:42:28;96072.59;;;7.20;86.42
14689;BME280;7432;48.728;9.154;2022-11-20T07:44:54;96072.91;;;7.17;85.49
14689;BME280;7432;48.728;9.154;2022-11-20T07:47:21;96075.25;;;7.10;85.12
14689;BME280;7432;48.728;9.154;2022-11-20T07:49:47;96070.28;;;6.91;86.05
14689;BME280;7432;48.728;9.154;2022-11-20T07:52:15;96073.81;;;7.34;85.28
14689;BME280;7432;48.728;9.154;2022-11-20T07:54:41;96074.19;;;8.14;83.79
14689;BME280;7432;48.728;9.154;2022-11-20T07:57:07;96068.13;;;9.14;76.07
14689;BME280;7432;48.728;9.154;2022-11-20T07:59:34;96081.59;;;9.16;75.06
14689;BME280;7432;48.728;9.154;2022-11-20T08:02:00;96082.56;;;8.82;76.80
14689;BME280;7432;48.728;9.154;2022-11-20T08:04:27;96075.13;;;8.55;77.67
14689;BME280;7432;48.728;9.154;2022-11-20T08:06:53;96092.81;;;8.16;78.02
14689;BME280;7432;48.728;9.154;2022-11-20T08:09:21;96087.63;;;7.66;80.56
14689;BME280;7432;48.728;9.154;2022-11-20T08:11:47;96092.44;;;7.44;81.63
14689;BME280;7432;48.728;9.154;2022-11-20T08:14:31;96091.09;;;7.32;82.53
14689;BME280;7432;48.728;9.154;2022-11-20T08:16:58;96087.91;;;7.12;84.12
14689;BME280;7432;48.728;9.154;2022-11-20T08:19:24;96100.84;;;7.10;84.92
14689;BME280;7432;48.728;9.154;2022-11-20T08:21:50;96093.41;;;6.99;86.59
14689;BME280;7432;48.728;9.154;2022-11-20T08:24:17;96100.81;;;6.85;86.63
14689;BME280;7432;48.728;9.154;2022-11-20T08:26:44;96098.59;;;6.54;89.10
14689;BME280;7432;48.728;9.154;2022-11-20T08:29:11;96104.06;;;6.60;87.83
14689;BME280;7432;48.728;9.154;2022-11-20T08:31:38;96098.03;;;6.61;87.76
14689;BME280;7432;48.728;9.154;2022-11-20T08:34:04;96101.47;;;6.69;88.43
14689;BME280;7432;48.728;9.154;2022-11-20T08:36:33;96104.88;;;6.60;88.21
14689;BME280;7432;48.728;9.154;2022-11-20T08:38:59;96097.50;;;6.57;88.13
14689;BME280;7432;48.728;9.154;2022-11-20T08:41:25;96103.13;;;6.61;88.83
14689;BME280;7432;48.728;9.154;2022-11-20T08:43:56;96101.53;;;6.60;89.00
14689;BME280;7432;48.728;9.154;2022-11-20T08:46:23;96098.97;;;6.60;88.84
14689;BME280;7432;48.728;9.154;2022-11-20T08:48:50;96099.91;;;6.76;88.11
14689;BME280;7432;48.728;9.154;2022-11-20T08:51:17;96105.09;;;6.84;88.31
14689;BME280;7432;48.728;9.154;2022-11-20T08:53:44;96100.47;;;7.05;88.58
14689;BME280;7432;48.728;9.154;2022-11-20T08:56:11;96100.91;;;7.18;85.77
14689;BME280;7432;48.728;9.154;2022-11-20T08:58:37;96104.31;;;7.27;86.42
14689;BME280;7432;48.728;9.154;2022-11-20T09:01:05;96111.22;;;7.52;86.46
14689;BME280;7432;48.728;9.154;2022-11-20T09:03:32;96115.97;;;7.65;84.82
14689;BME280;7432;48.728;9.154;2022-11-20T09:05:59;96106.19;;;7.68;84.39
14689;BME280;7432;48.728;9.154;2022-11-20T09:08:26;96109.81;;;7.58;83.08
14689;BME280;7432;48.728;9.154;2022-11-20T09:10:53;96114.59;;;7.53;83.62
14689;BME280;7432;48.728;9.154;2022-11-20T09:13:20;96122.78;;;7.56;84.64
14689;BME280;7432;48.728;9.154;2022-11-20T09:15:47;96108.53;;;7.54;85.03
14689;BME280;7432;48.728;9.154;2022-11-20T09:18:14;96123.28;;;7.60;85.05
14689;BME280;7432;48.728;9.154;2022-11-20T09:20:41;96121.81;;;7.57;85.50
14689;BME280;7432;48.728;9.154;2022-11-20T09:23:08;96121.94;;;7.48;85.66
14689;BME280;7432;48.728;9.154;2022-11-20T09:25:34;96122.69;;;7.40;85.44
14689;BME280;7432;48.728;9.154;2022-11-20T09:28:01;96124.56;;;7.38;86.33
14689;BME280;7432;48.728;9.154;2022-11-20T09:30:27;96126.41;;;7.46;85.39
14689;BME280;7432;48.728;9.154;2022-11-20T09:32:54;96131.06;;;7.50;85.70
14689;BME280;7432;48.728;9.154;2022-11-20T09:35:22;96135.50;;;7.40;84.86
14689;BME280;7432;48.728;9.154;2022-11-20T09:37:48;96136.69;;;7.28;86.34
14689;BME280;7432;48.728;9.154;2022-11-20T09:40:19;96144.53;;;7.27;85.57
14689;BME280;7432;48.728;9.154;2022-11-20T09:42:52;96138.22;;;7.21;85.87
14689;BME280;7432;48.728;9.154;2022-11-20T09:45:39;96138.59;;;7.08;87.66
14689;BME280;7432;48.728;9.154;2022-11-20T09:48:29;96140.34;;;7.08;87.13
14689;BME280;7432;48.728;9.154;2022-11-20T09:51:05;96140.84;;;7.11;87.34
14689;BME280;7432;48.728;9.154;2022-11-20T09:53:46;96145.69;;;7.14;87.94
14689;BME280;7432;48.728;9.154;2022-11-20T09:56:19;96143.28;;;7.13;87.90
14689;BME280;7432;48.728;9.154;2022-11-20T09:58:48;96140.03;;;7.29;88.02
14689;BME280;7432;48.728;9.154;2022-11-20T10:01:18;96135.88;;;7.28;86.17
14689;BME280;7432;48.728;9.154;2022-11-20T10:03:51;96138.00;;;7.32;87.24
14689;BME280;7432;48.728;9.154;2022-11-20T10:06:28;96140.03;;;7.29;86.41
14689;BME280;7432;48.728;9.154;2022-11-20T10:09:03;96137.78;;;7.26;86.55
14689;BME280;7432;48.728;9.154;2022-11-20T10:11:46;96121.84;;;7.14;86.71
14689;BME280;7432;48.728;9.154;2022-11-20T10:14:20;96136.44;;;7.22;87.71
14689;BME280;7432;48.728;9.154;2022-11-20T10:16:58;96136.69;;;7.10;88.88
14689;BME280;7432;48.728;9.154;2022-11-20T10:19:41;96135.75;;;7.11;88.89
14689;BME280;7432;48.728;9.154;2022-11-20T10:22:20;96138.53;;;7.18;88.98
14689;BME280;7432;48.728;9.154;2022-11-20T10:24:56;96137.72;;;7.18;89.54
14689;BME280;7432;48.728;9.154;2022-11-20T10:27:49;96137.25;;;7.22;90.08
14689;BME280;7432;48.728;9.154;2022-11-20T10:30:19;96151.09;;;7.29;90.11
14689;BME280;7432;48.728;9.154;2022-11-20T10:32:49;96152.19;;;7.09;91.58
14689;BME280;7432;48.728;9.154;2022-11-20T10:35:20;96152.66;;;7.04;91.88
14689;BME280;7432;48.728;9.154;2022-11-20T10:37:52;96148.47;;;7.03;92.57
14689;BME280;7432;48.728;9.154;2022-11-20T10:40:23;96156.38;;;6.92;92.55
14689;BME280;7432;48.728;9.154;2022-11-20T10:42:56;96153.88;;;6.83;94.30
14689;BME280;7432;48.728;9.154;2022-11-20T10:45:35;96137.94;;;6.89;92.75
14689;BME280;7432;48.728;9.154;2022-11-20T10:48:10;96147.97;;;6.82;92.99
14689;BME280;7432;48.728;9.154;2022-11-20T10:50:46;96137.28;;;6.87;93.43
14689;BME280;7432;48.728;9.154;2022-11-20T10:53:23;96134.44;;;6.90;93.36
14689;BME280;7432;48.728;9.154;2022-11-20T10:55:56;96131.81;;;6.99;93.25
14689;BME280;7432;48.728;9.154;2022-11-20T10:58:33;96141.38;;;7.15;93.55
14689;BME280;7432;48.728;9.154;2022-11-20T11:01:04;96132.44;;;7.19;93.72
14689;BME280;7432;48.728;9.154;2022-11-20T11:03:31;96129.38;;;7.15;92.80
14689;BME280;7432;48.728;9.154;2022-11-20T11:06:02;96132.31;;;7.21;91.79
14689;BME280;7432;48.728;9.154;2022-11-20T11:08:35;96139.97;;;7.21;93.21
14689;BME280;7432;48.728;9.154;2022-11-20T11:11:17;96142.53;;;7.21;93.29
14689;BME280;7432;48.728;9.154;2022-11-20T11:13:44;96134.75;;;7.30;92.74
14689;BME280;7432;48.728;9.154;2022-11-20T11:16:20;96119.09;;;7.33;92.54
14689;BME280;7432;48.728;9.154;2022-11-20T11:18:47;96121.19;;;7.38;91.97
14689;BME280;7432;48.728;9.154;2022-11-20T11:21:21;96125.06;;;7.59;93.17
14689;BME280;7432;48.728;9.154;2022-11-20T11:23:58;96114.59;;;7.79;92.00
14689;BME280;7432;48.728;9.154;2022-11-20T11:26:25;96114.69;;;7.95;91.39
14689;BME280;7432;48.728;9.154;2022-11-20T11:28:55;96114.38;;;7.98;89.62
14689;BME280;7432;48.728;9.154;2022-11-20T11:31:23;96099.97;;;8.05;87.10
14689;BME280;7432;48.728;9.154;2022-11-20T11:33:50;96104.81;;;8.08;88.00
14689;BME280;7432;48.728;9.154;2022-11-20T11:36:18;96101.97;;;7.85;87.79
14689;BME280;7432;48.728;9.154;2022-11-20T11:38:52;96094.53;;;7.74;88.52
14689;BME280;7432;48.728;9.154;2022-11-20T11:41:23;96091.06;;;7.57;89.73
14689;BME280;7432;48.728;9.154;2022-11-20T11:43:52;96089.63;;;7.55;89.12
14689;BME280;7432;48.728;9.154;2022-11-20T11:46:38;96084.50;;;7.55;90.10
14689;BME280;7432;48.728;9.154;2022-11-20T11:49:16;96082.34;;;7.42;90.91
14689;BME280;7432;48.728;9.154;2022-11-20T11:51:52;96072.16;;;7.50;90.09
14689;BME280;7432;48.728;9.154;2022-11-20T11:54:28;96069.38;;;7.44;88.89
14689;BME280;7432;48.728;9.154;2022-11-20T11:56:59;96065.88;;;7.45;88.82
14689;BME280;7432;48.728;9.154;2022-11-20T11:59:31;96065.13;;;7.52;88.62
14689;BME280;7432;48.728;9.154;2022-11-20T12:02:15;96071.63;;;7.72;87.51
14689;BME280;7432;48.728;9.154;2022-11-20T12:04:52;96066.91;;;7.94;88.44
14689;BME280;7432;48.728;9.154;2022-11-20T12:07:31;96075.78;;;8.07;85.25
14689;BME280;7432;48.728;9.154;2022-11-20T12:10:06;96065.94;;;8.28;85.18
14689;BME280;7432;48.728;9.154;2022-11-20T12:12:42;96063.72;;;8.42;81.11
14689;BME280;7432;48.728;9.154;2022-11-20T12:15:11;96066.00;;;8.53;80.17
14689;BME280;7432;48.728;9.154;2022-11-20T12:17:40;96062.66;;;8.68;79.64
14689;BME280;7432;48.728;9.154;2022-11-20T12:20:11;96060.75;;;8.78;77.48
14689;BME280;7432;48.728;9.154;2022-11-20T12:22:43;96060.25;;;8.67;75.70
14689;BME280;7432;48.728;9.154;2022-11-20T12:25:18;96056.22;;;8.56;74.89
14689;BME280;7432;48.728;9.154;2022-11-20T12:28:16;96050.41;;;8.30;77.79
14689;BME280;7432;48.728;9.154;2022-11-20T12:30:55;96049.22;;;8.16;77.18
14689;BME280;7432;48.728;9.154;2022-11-20T12:33:41;96054.31;;;8.00;76.54
14689;BME280;7432;48.728;9.154;2022-11-20T12:36:19;96043.91;;;8.10;75.33
14689;BME280;7432;48.728;9.154;2022-11-20T12:39:10;96052.88;;;8.06;75.32
14689;BME280;7432;48.728;9.154;2022-11-20T12:41:46;96053.34;;;8.09;73.30
14689;BME280;7432;48.728;9.154;2022-11-20T12:44:44;96056.88;;;8.08;75.58
14689;BME280;7432;48.728;9.154;2022-11-20T12:47:49;96059.31;;;8.18;75.31
14689;BME280;7432;48.728;9.154;2022-11-20T12:50:23;96061.13;;;8.33;75.37
14689;BME280;7432;48.728;9.154;2022-11-20T12:52:57;96054.41;;;8.32;74.41
14689;BME280;7432;48.728;9.154;2022-11-20T12:55:36;96064.41;;;8.10;75.05
14689;BME280;7432;48.728;9.154;2022-11-20T12:58:11;96057.75;;;7.83;75.03
14689;BME280;7432;48.728;9.154;2022-11-20T13:00:50;96053.22;;;7.77;74.45
14689;BME280;7432;48.728;9.154;2022-11-20T13:03:33;96054.13;;;7.68;74.20
14689;BME280;7432;48.728;9.154;2022-11-20T13:06:11;96051.44;;;7.69;73.54
14689;BME280;7432;48.728;9.154;2022-11-20T13:08:40;96051.00;;;7.82;72.91
14689;BME280;7432;48.728;9.154;2022-11-20T13:11:12;96054.31;;;8.00;72.47
14689;BME280;7432;48.728;9.154;2022-11-20T13:16:37;96058.16;;;8.04;73.36
14689;BME280;7432;48.728;9.154;2022-11-20T13:19:04;96071.66;;;8.22;73.51
14689;BME280;7432;48.728;9.154;2022-11-20T13:21:36;96053.41;;;8.25;71.31
14689;BME280;7432;48.728;9.154;2022-11-20T13:24:07;96051.53;;;8.27;70.87
14689;BME280;7432;48.728;9.154;2022-11-20T13:26:33;96050.38;;;8.22;70.91
14689;BME280;7432;48.728;9.154;2022-11-20T13:29:07;96051.28;;;8.13;72.65
14689;BME280;7432;48.728;9.154;2022-11-20T13:31:36;96048.72;;;8.13;70.82
14689;BME280;7432;48.728;9.154;2022-11-20T13:34:06;96036.69;;;8.05;71.01
14689;BME280;7432;48.728;9.154;2022-11-20T13:36:33;96039.06;;;7.99;71.10
14689;BME280;7432;48.728;9.154;2022-11-20T13:39:01;96033.78;;;8.00;71.71
14689;BME280;7432;48.728;9.154;2022-11-20T13:41:29;96036.00;;;7.95;72.57